Tarrytown, New York
Current Conditions -  °F | °C
As of 6:56 PM on Sunday 23 Nov 2014 (Local Time) from KHPN Reporting Station
Few Clouds Few Clouds  
Wind Chill: 38°   Ceiling: Unl
Heat Index: 42°   Visibility: 10mi
Dew Point: 28°   Wind: 6mph
Humidity: 58%   Direction: 130°SE
Pressure: 30.12"   Gusts: NA
Location:  41.08°N, 73.86°W
Report Text: KHPN 232356Z 13005KT 10SM FEW029 06/M02 A3012 RMK AO2 SLP204 T00561022 10133 20044 58001
Loading
Personal Weather Stations






























Interactive Weather Map New forecast layout! Learn more

10-Day Weather Forecast

Advertisements
Track Severe Weather on mobile